Time;durP1;ratioP1;P1;durP2;ratioP2;P2;SDS_P1;SDS_P2;PMS_P1;PMS_P2;Temp;Humidity;BMP_temperature;BMP_pressure;BME280_temperature;BME280_humidity;BME280_pressure;Samples;Min_cycle;Max_cycle;Signal;HPM_P1;HPM_P2
2023/05/06 00:02:40;;;;;;;92.45;40.65;;;;;;;13.50;100.00;100640.88;8373548;28;20056;-59
2023/05/06 00:06:41;;;;;;;92.82;42.45;;;;;;;13.48;100.00;100637.47;8349851;28;20041;-59
2023/05/06 00:10:41;;;;;;;96.25;42.13;;;;;;;13.47;100.00;100630.31;8334357;28;20037;-59
2023/05/06 00:14:42;;;;;;;92.20;42.17;;;;;;;13.52;100.00;100633.44;8336389;28;20048;-59
2023/05/06 00:18:42;;;;;;;84.10;38.80;;;;;;;13.29;100.00;100622.19;8332959;28;20507;-59
2023/05/06 00:22:43;;;;;;;89.10;37.95;;;;;;;13.19;100.00;100621.41;8355394;28;20057;-59
2023/05/06 00:26:43;;;;;;;88.85;39.45;;;;;;;13.12;100.00;100616.75;8338678;28;20038;-59
2023/05/06 00:30:44;;;;;;;89.53;40.63;;;;;;;13.13;100.00;100619.31;8334426;28;20038;-59
2023/05/06 00:34:44;;;;;;;97.07;42.10;;;;;;;13.06;100.00;100615.53;8339354;28;20120;-59
2023/05/06 00:38:45;;;;;;;86.15;40.72;;;;;;;13.02;100.00;100613.25;8354901;28;20127;-59
2023/05/06 00:42:45;;;;;;;103.22;43.22;;;;;;;13.01;100.00;100611.53;8373997;28;20117;-59
2023/05/06 00:46:46;;;;;;;97.35;41.88;;;;;;;12.99;100.00;100618.97;8373743;28;20154;-59
2023/05/06 00:50:48;;;;;;;98.00;44.05;;;;;;;13.03;100.00;100620.38;8374863;28;20025;-59
2023/05/06 00:54:48;;;;;;;103.20;45.40;;;;;;;12.99;100.00;100619.84;8375218;28;20033;-59
2023/05/06 00:58:49;;;;;;;70.93;34.22;;;;;;;12.81;100.00;100626.22;8370892;28;20040;-60
2023/05/06 01:02:49;;;;;;;76.45;34.05;;;;;;;12.47;100.00;100622.41;8375276;28;20515;-60
2023/05/06 01:07:07;;;;;;;268.85;30.20;;;;;;;12.30;100.00;100623.19;8374034;28;20091;-60
2023/05/06 01:11:16;;;;;;;67.70;29.40;;;;;;;12.49;100.00;100623.09;8368619;28;20112;-60
2023/05/06 01:15:26;;;;;;;83.55;34.83;;;;;;;12.41;100.00;100620.31;8387732;28;20352;-60
2023/05/06 01:19:47;;;;;;;74.10;34.17;;;;;;;12.38;100.00;100615.19;8359425;28;20037;-60
2023/05/06 01:23:54;;;;;;;68.95;34.47;;;;;;;12.33;100.00;100614.75;8368651;28;20033;-60
2023/05/06 01:27:55;;;;;;;86.43;40.08;;;;;;;12.47;100.00;100622.41;8386396;28;20037;-59
2023/05/06 01:32:04;;;;;;;93.47;41.70;;;;;;;12.47;100.00;100617.00;8390547;28;20056;-60
2023/05/06 01:36:14;;;;;;;98.32;41.45;;;;;;;12.40;100.00;100621.28;8390828;28;20036;-60
2023/05/06 01:40:16;;;;;;;88.10;40.33;;;;;;;12.43;100.00;100631.84;8390986;28;20043;-60
2023/05/06 01:44:21;;;;;;;97.28;41.80;;;;;;;12.40;100.00;100618.56;8379601;28;20052;-59
2023/05/06 01:48:25;;;;;;;92.90;41.70;;;;;;;12.29;100.00;100624.22;8364083;28;20400;-60
2023/05/06 01:52:25;;;;;;;96.07;40.13;;;;;;;12.32;100.00;100632.03;8374715;28;20498;-60
2023/05/06 01:56:29;;;;;;;91.88;40.08;;;;;;;12.29;100.00;100630.47;8374829;28;20576;-59
2023/05/06 02:00:29;;;;;;;99.47;41.22;;;;;;;12.29;100.00;100624.22;8396734;28;20047;-59
2023/05/06 02:04:30;;;;;;;62.88;31.05;;;;;;;11.72;100.00;100636.91;8374229;28;20472;-59
2023/05/06 02:08:30;;;;;;;58.88;29.58;;;;;;;11.81;100.00;100637.91;8374653;28;20127;-59
2023/05/06 02:12:31;;;;;;;79.18;34.70;;;;;;;11.89;100.00;100633.44;8374700;28;20514;-59
2023/05/06 02:16:31;;;;;;;59.97;29.30;;;;;;;11.55;100.00;100640.31;8376384;28;20037;-59
2023/05/06 02:20:32;;;;;;;63.88;31.63;;;;;;;11.69;100.00;100637.19;8373724;28;20561;-59
2023/05/06 02:24:32;;;;;;;75.53;35.72;;;;;;;11.67;100.00;100643.75;8362060;28;20042;-59
2023/05/06 02:28:33;;;;;;;81.65;38.75;;;;;;;11.80;100.00;100636.16;8341543;28;20043;-57
2023/05/06 02:32:33;;;;;;;76.60;35.60;;;;;;;11.70;100.00;100633.50;8341535;28;20495;-57
2023/05/06 02:36:34;;;;;;;76.78;36.63;;;;;;;11.62;100.00;100619.81;8339020;28;20124;-57
2023/05/06 02:40:34;;;;;;;70.50;33.97;;;;;;;11.48;100.00;100617.53;8374587;28;20040;-58
2023/05/06 02:44:35;;;;;;;72.53;32.65;;;;;;;11.22;100.00;100605.56;8390084;28;20356;-57
2023/05/06 02:48:36;;;;;;;69.45;34.00;;;;;;;11.37;100.00;100620.38;8389283;28;20070;-57
2023/05/06 02:52:37;;;;;;;62.85;29.58;;;;;;;11.32;100.00;100617.22;8390264;28;20041;-57
2023/05/06 02:56:38;;;;;;;62.80;28.70;;;;;;;11.25;100.00;100616.09;8383962;28;20033;-57
2023/05/06 03:00:38;;;;;;;51.70;28.52;;;;;;;11.18;100.00;100614.97;8373477;28;20033;-57
2023/05/06 03:04:39;;;;;;;48.60;25.63;;;;;;;11.06;100.00;100610.69;8372986;28;20086;-57
2023/05/06 03:08:39;;;;;;;50.83;23.95;;;;;;;11.00;100.00;100616.66;8362358;28;20037;-57
2023/05/06 03:12:40;;;;;;;44.72;23.58;;;;;;;10.86;100.00;100602.72;8339726;28;20040;-57
2023/05/06 03:16:41;;;;;;;184.20;22.05;;;;;;;10.83;100.00;100606.53;8338573;28;20044;-57
2023/05/06 03:20:42;;;;;;;69.55;18.00;;;;;;;10.60;100.00;100613.19;8340150;28;20037;-57
2023/05/06 03:24:42;;;;;;;50.88;23.73;;;;;;;10.65;100.00;100605.53;8369574;28;20041;-57
2023/05/06 03:28:44;;;;;;;52.78;26.73;;;;;;;10.78;100.00;100603.41;8371517;28;20043;-58
2023/05/06 03:32:46;;;;;;;52.85;25.45;;;;;;;10.96;100.00;100612.53;8372742;28;20075;-57
2023/05/06 03:36:51;;;;;;;46.53;23.55;;;;;;;10.82;100.00;100607.53;8370368;28;20040;-58
2023/05/06 03:40:52;;;;;;;46.35;24.85;;;;;;;10.79;100.00;100612.34;8371910;28;20041;-57
2023/05/06 03:44:54;;;;;;;48.67;24.10;;;;;;;10.86;100.00;100619.75;8372539;28;20502;-57
2023/05/06 03:48:57;;;;;;;47.05;24.35;;;;;;;10.76;100.00;100612.63;8372825;28;20037;-58
2023/05/06 03:52:58;;;;;;;41.42;22.98;;;;;;;10.84;100.00;100607.38;8372983;28;20554;-57
2023/05/06 03:57:01;;;;;;;43.47;21.25;;;;;;;10.84;100.00;100616.38;8353922;28;20036;-58
2023/05/06 04:01:03;;;;;;;37.38;19.98;;;;;;;10.70;100.00;100607.81;8369739;28;20132;-57
2023/05/06 04:05:04;;;;;;;39.50;20.50;;;;;;;10.66;100.00;100618.03;8371687;28;20037;-57
2023/05/06 04:09:05;;;;;;;33.85;19.58;;;;;;;10.75;100.00;100614.50;8377021;28;20111;-57
2023/05/06 04:13:07;;;;;;;31.10;17.17;;;;;;;10.86;100.00;100611.66;8378077;28;20033;-58
2023/05/06 04:17:13;;;;;;;24.42;15.30;;;;;;;10.79;100.00;100621.34;8375750;28;20058;-57
2023/05/06 04:21:17;;;;;;;27.33;16.60;;;;;;;10.80;100.00;100625.72;8378776;28;20094;-58
2023/05/06 04:25:22;;;;;;;22.73;13.57;;;;;;;10.79;100.00;100634.84;8379274;28;20578;-57
2023/05/06 04:29:22;;;;;;;25.25;14.80;;;;;;;10.88;100.00;100635.84;8381366;28;20407;-58
2023/05/06 04:33:31;;;;;;;20.25;12.10;;;;;;;11.02;100.00;100641.75;8394925;28;20444;-58
2023/05/06 04:37:35;;;;;;;19.90;11.98;;;;;;;11.08;100.00;100641.19;8379908;28;20036;-58
2023/05/06 04:41:41;;;;;;;19.08;9.75;;;;;;;11.23;100.00;100647.03;8377837;28;20484;-58
2023/05/06 04:45:48;;;;;;;15.45;9.20;;;;;;;11.35;100.00;100649.44;8377996;28;20098;-57
2023/05/06 04:49:51;;;;;;;19.40;9.13;;;;;;;11.31;100.00;100648.00;8376501;28;20037;-58
2023/05/06 04:53:52;;;;;;;13.23;8.50;;;;;;;11.52;100.00;100658.69;8377782;28;20109;-57
2023/05/06 04:57:53;;;;;;;13.68;9.10;;;;;;;11.70;100.00;100648.88;8390463;28;20267;-58
2023/05/06 05:01:53;;;;;;;14.07;9.93;;;;;;;11.70;100.00;100660.59;8385041;28;20119;-58
2023/05/06 05:05:54;;;;;;;12.65;10.00;;;;;;;11.78;100.00;100663.41;8375833;28;20055;-58
2023/05/06 05:09:54;;;;;;;14.15;8.82;;;;;;;11.97;100.00;100661.66;8375087;28;20048;-57
2023/05/06 05:13:56;;;;;;;12.93;9.00;;;;;;;12.32;100.00;100661.88;8375748;28;20138;-58
2023/05/06 05:17:57;;;;;;;12.23;8.00;;;;;;;12.48;100.00;100667.50;8376057;28;20041;-58
2023/05/06 05:21:58;;;;;;;14.77;7.90;;;;;;;12.80;100.00;100662.47;8376542;28;20063;-57
2023/05/06 05:26:00;;;;;;;9.23;6.82;;;;;;;12.90;100.00;100676.88;8374623;28;20503;-58
2023/05/06 05:30:01;;;;;;;14.07;7.65;;;;;;;13.25;100.00;100674.22;8375734;28;20471;-57
2023/05/06 05:34:04;;;;;;;12.25;6.78;;;;;;;13.49;100.00;100677.19;8376309;28;20491;-58
2023/05/06 05:38:05;;;;;;;13.35;6.38;;;;;;;13.80;100.00;100686.66;8378031;28;20090;-58
2023/05/06 05:42:06;;;;;;;8.75;5.90;;;;;;;13.89;100.00;100680.25;8376507;28;20089;-58
2023/05/06 05:46:09;;;;;;;9.30;6.05;;;;;;;13.68;100.00;100683.31;8373992;28;20041;-58
2023/05/06 05:50:11;;;;;;;8.45;5.57;;;;;;;13.81;100.00;100688.34;8375291;28;20040;-57
2023/05/06 05:54:13;;;;;;;8.02;5.68;;;;;;;14.27;100.00;100688.03;8375387;28;20105;-58
2023/05/06 05:58:15;;;;;;;5.80;4.85;;;;;;;14.34;100.00;100688.25;8374429;28;20098;-58
2023/05/06 06:02:17;;;;;;;6.60;4.63;;;;;;;14.49;100.00;100690.22;8375980;28;20407;-58
2023/05/06 06:06:18;;;;;;;6.95;4.07;;;;;;;14.83;100.00;100677.47;8369747;28;20079;-58
2023/05/06 06:10:19;;;;;;;4.95;3.70;;;;;;;15.21;100.00;100676.91;8358526;28;20029;-58
2023/05/06 06:14:20;;;;;;;5.70;4.15;;;;;;;15.43;98.75;100676.31;8372850;28;20491;-58
2023/05/06 06:18:23;;;;;;;6.03;4.03;;;;;;;15.70;99.83;100681.47;8346815;28;20040;-60
2023/05/06 06:22:23;;;;;;;7.45;3.72;;;;;;;15.67;98.63;100686.38;8370116;28;20032;-60
2023/05/06 06:26:25;;;;;;;6.75;3.40;;;;;;;15.59;100.00;100687.22;8362899;28;20070;-59
2023/05/06 06:30:25;;;;;;;7.60;3.60;;;;;;;15.84;100.00;100684.53;8363741;28;20314;-60
2023/05/06 06:34:26;;;;;;;4.57;3.17;;;;;;;16.14;98.39;100678.38;8371780;28;20457;-58
2023/05/06 06:38:26;;;;;;;6.90;3.67;;;;;;;16.14;98.41;100686.56;8354093;28;20044;-58
2023/05/06 06:42:27;;;;;;;6.05;4.43;;;;;;;16.80;100.00;100695.34;8373402;28;20051;-58
2023/05/06 06:46:40;;;;;;;5.32;3.20;;;;;;;16.70;95.84;100705.59;8364626;28;20037;-58
2023/05/06 06:50:41;;;;;;;6.22;3.53;;;;;;;16.94;95.09;100691.84;8341701;28;20045;-58
2023/05/06 06:54:41;;;;;;;5.03;3.33;;;;;;;17.15;97.86;100689.34;8367260;28;20120;-57
2023/05/06 06:58:42;;;;;;;5.93;3.83;;;;;;;17.12;93.49;100697.91;8369569;28;20063;-58
2023/05/06 07:02:43;;;;;;;5.35;3.03;;;;;;;17.60;92.41;100694.94;8348709;28;20045;-58
2023/05/06 07:06:43;;;;;;;3.70;2.53;;;;;;;17.66;89.56;100699.69;8332218;28;20053;-58
2023/05/06 07:10:44;;;;;;;3.50;2.40;;;;;;;17.67;88.08;100700.50;8359234;28;20032;-57
2023/05/06 07:14:45;;;;;;;3.97;2.50;;;;;;;17.20;90.06;100698.72;8384006;28;20150;-59
2023/05/06 07:18:46;;;;;;;3.35;2.60;;;;;;;17.40;92.98;100699.13;8361449;28;20146;-60
2023/05/06 07:22:47;;;;;;;4.45;2.70;;;;;;;17.87;90.39;100699.84;8351664;28;20589;-60
2023/05/06 07:26:47;;;;;;;2.28;2.05;;;;;;;18.14;87.85;100710.22;8354809;28;20392;-60
2023/05/06 07:30:50;;;;;;;2.40;2.03;;;;;;;18.42;87.63;100703.13;8377687;28;20033;-59
2023/05/06 07:34:50;;;;;;;3.97;1.95;;;;;;;18.61;84.22;100707.22;8375862;28;20037;-59
2023/05/06 07:38:51;;;;;;;2.40;2.00;;;;;;;18.82;85.91;100705.44;8367654;28;20571;-59
2023/05/06 07:42:51;;;;;;;2.95;1.95;;;;;;;19.22;84.85;100702.19;8371800;28;20041;-59
2023/05/06 07:46:52;;;;;;;3.17;1.50;;;;;;;19.07;83.72;100709.59;8372334;28;20049;-59
2023/05/06 07:50:52;;;;;;;4.47;1.58;;;;;;;19.04;82.68;100704.50;8371028;28;20033;-59
2023/05/06 07:54:53;;;;;;;3.75;2.03;;;;;;;19.32;79.38;100712.91;8374904;28;20090;-58
2023/05/06 07:58:53;;;;;;;1.88;1.25;;;;;;;19.68;80.92;100708.25;8372902;28;20043;-59
2023/05/06 08:02:53;;;;;;;2.60;1.38;;;;;;;19.52;80.01;100706.59;8376604;28;20040;-59
2023/05/06 08:06:54;;;;;;;3.20;1.50;;;;;;;19.78;78.68;100713.41;8374631;28;20061;-59
2023/05/06 08:10:56;;;;;;;3.60;1.38;;;;;;;19.78;79.21;100713.41;8341592;28;20045;-59
2023/05/06 08:14:57;;;;;;;2.08;1.02;;;;;;;19.68;78.10;100719.22;8340948;28;20045;-59
2023/05/06 08:18:57;;;;;;;2.22;1.30;;;;;;;20.36;79.26;100724.13;8348171;28;20033;-59
2023/05/06 08:22:59;;;;;;;3.15;1.65;;;;;;;20.44;77.86;100732.25;8376045;28;20040;-59
2023/05/06 08:27:00;;;;;;;3.00;1.42;;;;;;;20.36;77.08;100721.38;8372808;28;20041;-59
2023/05/06 08:31:01;;;;;;;4.18;1.52;;;;;;;20.52;78.47;100718.38;8378553;28;20086;-59
2023/05/06 08:35:01;;;;;;;2.75;1.60;;;;;;;20.17;79.25;100719.34;8384268;28;20036;-59
2023/05/06 08:39:02;;;;;;;3.83;1.52;;;;;;;20.39;80.36;100716.34;8369849;28;20040;-59
2023/05/06 08:43:04;;;;;;;1.85;1.30;;;;;;;20.50;77.71;100709.47;8383707;28;20044;-59
2023/05/06 08:47:04;;;;;;;4.10;1.40;;;;;;;20.82;79.89;100703.34;8386829;28;20540;-59
2023/05/06 08:51:06;;;;;;;11.68;1.40;;;;;;;20.88;76.65;100702.53;8385349;28;20465;-59
2023/05/06 08:55:08;;;;;;;2.80;1.17;;;;;;;20.88;72.65;100691.53;8354393;28;20072;-59
2023/05/06 08:59:09;;;;;;;2.33;1.63;;;;;;;20.83;78.67;100694.91;8369115;28;20404;-58
2023/05/06 09:03:10;;;;;;;2.40;1.30;;;;;;;21.17;75.69;100691.31;8382982;28;20039;-59
2023/05/06 09:07:10;;;;;;;1.70;1.00;;;;;;;21.29;74.95;100697.94;8398808;28;20052;-59
2023/05/06 09:11:28;;;;;;;2.05;1.00;;;;;;;21.46;70.15;100696.50;8368881;28;20116;-59
2023/05/06 09:15:46;;;;;;;2.20;1.13;;;;;;;21.44;71.26;100689.50;8379802;28;20140;-58
2023/05/06 09:19:47;;;;;;;2.20;1.00;;;;;;;21.30;74.10;100686.72;8356796;28;20086;-58
2023/05/06 09:23:47;;;;;;;3.55;1.08;;;;;;;21.73;74.75;100689.16;8361183;28;20086;-59
2023/05/06 09:27:48;;;;;;;2.17;0.85;;;;;;;21.92;70.32;100680.97;8371186;28;20059;-59
2023/05/06 09:31:49;;;;;;;4.07;1.38;;;;;;;21.28;70.85;100683.31;8371663;28;20122;-58
2023/05/06 09:35:50;;;;;;;2.97;1.10;;;;;;;21.52;71.14;100676.41;8370137;28;20472;-60
2023/05/06 09:39:55;;;;;;;3.17;0.82;;;;;;;22.14;71.12;100678.88;8363247;28;20415;-60
2023/05/06 09:43:57;;;;;;;2.53;0.90;;;;;;;22.28;68.34;100667.66;8370228;28;20040;-61
2023/05/06 09:47:59;;;;;;;1.80;1.00;;;;;;;23.05;65.27;100674.09;8370430;28;20514;-60
2023/05/06 09:52:00;;;;;;;1.42;0.50;;;;;;;23.30;64.81;100665.13;8370977;28;20044;-61
2023/05/06 09:56:02;;;;;;;2.00;0.90;;;;;;;23.88;63.76;100663.94;8370554;28;20116;-61
2023/05/06 10:00:06;;;;;;;0.90;0.63;;;;;;;23.37;64.81;100661.28;8369134;28;20160;-60
2023/05/06 10:04:31;;;;;;;4.68;0.90;;;;;;;22.89;63.04;100658.03;8425480;27;20753;-60
2023/05/06 10:08:33;;;;;;;4.53;0.68;;;;;;;22.90;64.66;100656.97;8409831;28;20036;-60
2023/05/06 10:12:34;;;;;;;1.73;0.60;;;;;;;22.69;64.16;100661.91;8413400;28;20067;-60
2023/05/06 10:16:36;;;;;;;3.40;0.60;;;;;;;23.12;65.88;100652.84;8406660;28;20503;-60
2023/05/06 10:20:39;;;;;;;3.28;0.73;;;;;;;23.19;63.24;100648.16;8400682;28;20286;-60
2023/05/06 10:24:48;;;;;;;0.90;0.45;;;;;;;22.81;65.86;100649.16;8404200;28;20040;-60
2023/05/06 10:28:52;;;;;;;2.53;0.70;;;;;;;22.19;64.40;100638.63;8445922;28;20036;-59
2023/05/06 10:32:55;;;;;;;1.48;0.57;;;;;;;22.64;63.34;100651.53;8427962;28;20040;-60
2023/05/06 10:36:58;;;;;;;2.08;0.50;;;;;;;22.83;65.03;100634.09;8399741;28;20696;-59
2023/05/06 10:41:00;;;;;;;1.90;0.90;;;;;;;22.38;63.83;100639.69;8398298;28;20037;-60
2023/05/06 10:45:03;;;;;;;3.15;0.80;;;;;;;22.57;64.62;100636.91;8378881;28;20461;-60
2023/05/06 10:53:54;;;;;;;1.20;0.68;;;;;;;22.32;62.34;100638.59;8302780;27;21010;-59
2023/05/06 10:58:14;;;;;;;2.22;0.70;;;;;;;22.08;68.68;100628.22;8280518;28;20096;-60
2023/05/06 11:02:18;;;;;;;2.35;0.70;;;;;;;22.04;65.12;100626.97;8281038;28;20034;-60
2023/05/06 11:06:45;;;;;;;2.65;0.70;;;;;;;22.58;64.78;100622.06;8280181;28;20412;-60
2023/05/06 11:10:46;;;;;;;1.55;0.50;;;;;;;22.78;61.38;100614.56;8304631;28;20034;-60
2023/05/06 11:14:46;;;;;;;2.30;0.70;;;;;;;22.73;63.05;100611.66;8297005;28;20056;-60
2023/05/06 11:18:47;;;;;;;3.33;0.90;;;;;;;23.15;63.81;100607.44;8312947;28;20425;-60
2023/05/06 11:22:48;;;;;;;2.45;0.95;;;;;;;22.42;62.20;100599.59;8313215;28;20399;-60
2023/05/06 11:26:49;;;;;;;1.58;0.75;;;;;;;22.44;63.30;100598.31;8309974;28;20048;-60
2023/05/06 11:30:53;;;;;;;2.17;0.77;;;;;;;22.88;62.05;100598.41;8312409;28;20049;-60
2023/05/06 11:34:55;;;;;;;2.30;0.77;;;;;;;23.79;60.21;100585.19;8300528;28;20038;-61
2023/05/06 11:38:57;;;;;;;1.55;0.68;;;;;;;23.45;60.33;100585.66;8307925;28;20049;-60
2023/05/06 11:43:14;;;;;;;1.92;0.60;;;;;;;24.12;59.97;100583.84;8280478;28;20045;-60
2023/05/06 11:47:14;;;;;;;1.77;0.55;;;;;;;25.99;55.79;100571.66;8280257;28;20061;-61
2023/05/06 11:51:20;;;;;;;1.77;0.63;;;;;;;27.18;51.50;100571.88;8284494;28;20037;-60
2023/05/06 11:55:20;;;;;;;1.48;0.70;;;;;;;27.12;52.12;100584.84;8300870;28;20049;-61
2023/05/06 11:59:27;;;;;;;2.42;0.60;;;;;;;25.63;54.88;100580.09;8308904;28;20033;-60
2023/05/06 12:03:30;;;;;;;1.90;0.60;;;;;;;24.30;55.99;100585.78;8285011;28;20141;-60
2023/05/06 12:07:31;;;;;;;1.45;0.70;;;;;;;23.53;58.34;100590.88;8263047;28;20034;-61
2023/05/06 12:11:33;;;;;;;2.25;0.65;;;;;;;23.63;57.98;100588.50;8289876;28;20427;-61
2023/05/06 12:15:34;;;;;;;1.70;0.50;;;;;;;23.04;60.48;100584.16;8290699;28;20049;-60
2023/05/06 12:19:35;;;;;;;3.60;0.70;;;;;;;23.10;60.85;100588.78;8288285;28;20049;-60
2023/05/06 12:23:35;;;;;;;2.95;0.80;;;;;;;22.67;60.69;100584.94;8289569;28;20474;-60
2023/05/06 12:27:36;;;;;;;1.50;0.50;;;;;;;22.65;62.06;100581.53;8286970;28;20042;-60
2023/05/06 12:31:36;;;;;;;3.03;0.80;;;;;;;22.29;62.31;100578.41;8287801;28;20041;-60
2023/05/06 12:35:39;;;;;;;2.10;0.60;;;;;;;22.47;62.58;100575.84;8287889;28;20050;-60
2023/05/06 12:39:39;;;;;;;1.40;0.70;;;;;;;22.58;62.87;100577.97;8284921;28;20038;-60
2023/05/06 12:43:40;;;;;;;2.97;0.80;;;;;;;22.34;63.75;100581.38;8287480;28;20076;-60
2023/05/06 12:47:51;;;;;;;1.42;0.60;;;;;;;22.33;63.65;100573.34;8275790;28;20038;-60
2023/05/06 12:52:12;;;;;;;3.00;0.70;;;;;;;22.51;63.58;100577.13;8281846;28;20038;-60
2023/05/06 12:56:12;;;;;;;4.15;1.48;;;;;;;22.53;61.92;100575.00;8275962;28;20069;-61
2023/05/06 13:00:14;;;;;;;3.28;0.70;;;;;;;22.63;62.89;100572.63;8277529;28;20042;-61
2023/05/06 13:04:15;;;;;;;2.33;0.90;;;;;;;22.72;63.84;100582.34;8265659;28;20048;-61
2023/05/06 13:08:15;;;;;;;2.13;0.80;;;;;;;22.57;61.38;100581.78;8282935;28;20049;-61
2023/05/06 13:12:16;;;;;;;2.97;0.80;;;;;;;22.78;63.59;100589.75;8271955;28;20121;-61
2023/05/06 13:16:17;;;;;;;3.10;0.80;;;;;;;22.72;63.93;100596.16;8292859;28;20434;-61
2023/05/06 13:20:17;;;;;;;2.47;0.65;;;;;;;22.30;67.81;100585.66;8299457;28;21383;-61
2023/05/06 13:24:18;;;;;;;9.88;4.80;;;;;;;22.17;71.55;100596.66;8288640;28;20072;-62
2023/05/06 13:28:18;;;;;;;1.00;0.60;;;;;;;21.69;73.26;100603.44;8265210;28;20049;-61
2023/05/06 13:32:19;;;;;;;3.28;0.95;;;;;;;21.09;77.34;100611.75;8285767;28;20433;-61
2023/05/06 13:36:21;;;;;;;2.10;1.20;;;;;;;20.81;85.10;100624.69;8284903;28;20397;-61
2023/05/06 13:40:21;;;;;;;3.80;1.30;;;;;;;20.44;87.29;100638.84;8286023;28;20029;-60
2023/05/06 13:44:23;;;;;;;4.47;1.42;;;;;;;19.69;92.04;100635.00;8278379;28;20552;-60
2023/05/06 13:48:23;;;;;;;4.95;1.05;;;;;;;18.86;100.00;100646.50;8259790;28;20034;-60
2023/05/06 13:52:24;;;;;;;5.90;1.75;;;;;;;18.72;100.00;100655.56;8284864;28;20038;-61
2023/05/06 13:56:25;;;;;;;3.85;1.60;;;;;;;18.52;100.00;100643.50;8278790;28;20053;-61
2023/05/06 14:00:26;;;;;;;5.95;1.92;;;;;;;18.40;100.00;100649.63;8281927;28;20045;-62
2023/05/06 14:04:26;;;;;;;3.17;1.42;;;;;;;18.28;100.00;100635.50;8284531;28;20091;-62
2023/05/06 14:08:27;;;;;;;4.65;1.70;;;;;;;18.20;100.00;100632.84;8284622;28;20042;-61
2023/05/06 14:12:27;;;;;;;2.55;1.33;;;;;;;18.38;100.00;100632.50;8264795;28;20069;-60
2023/05/06 14:16:28;;;;;;;3.45;1.58;;;;;;;18.34;100.00;100629.28;8271878;28;20395;-60
2023/05/06 14:20:28;;;;;;;3.17;1.42;;;;;;;18.30;100.00;100629.84;8283133;28;20045;-61
2023/05/06 14:24:28;;;;;;;3.58;1.27;;;;;;;18.12;100.00;100630.22;8284319;28;20045;-60
2023/05/06 14:28:29;;;;;;;2.05;1.02;;;;;;;18.24;100.00;100628.69;8276270;28;20552;-60
2023/05/06 14:32:31;;;;;;;3.78;1.77;;;;;;;18.18;100.00;100623.13;8263825;28;20126;-60
2023/05/06 14:36:31;;;;;;;2.67;1.73;;;;;;;18.25;100.00;100619.47;8269372;28;20035;-60
2023/05/06 14:40:32;;;;;;;2.50;1.60;;;;;;;18.36;100.00;100616.25;8276119;28;20290;-61
2023/05/06 14:44:32;;;;;;;4.55;1.50;;;;;;;18.26;100.00;100615.69;8284404;28;20062;-60
2023/05/06 14:48:33;;;;;;;4.07;1.40;;;;;;;18.33;100.00;100622.09;8283077;28;20038;-60
2023/05/06 14:52:35;;;;;;;3.53;1.20;;;;;;;18.34;100.00;100618.34;8268585;28;20044;-60
2023/05/06 14:56:35;;;;;;;3.03;0.90;;;;;;;18.34;100.00;100618.34;8255911;28;20050;-62
2023/05/06 15:00:37;;;;;;;1.75;0.70;;;;;;;18.31;98.85;100617.84;8281475;28;20045;-62
2023/05/06 15:04:38;;;;;;;0.57;0.30;;;;;;;18.41;98.90;100613.84;8284962;28;20038;-62
2023/05/06 15:08:38;;;;;;;1.52;0.40;;;;;;;18.26;99.97;100610.19;8278859;28;20296;-62
2023/05/06 15:12:39;;;;;;;2.88;0.82;;;;;;;18.22;100.00;100611.63;8283265;28;20038;-62
2023/05/06 15:16:39;;;;;;;3.05;0.80;;;;;;;18.07;100.00;100615.38;8268084;28;20046;-62
2023/05/06 15:20:40;;;;;;;1.85;0.70;;;;;;;17.90;100.00;100614.66;8285597;28;20046;-62
2023/05/06 15:24:41;;;;;;;1.40;0.70;;;;;;;17.80;100.00;100608.63;8285462;28;20057;-62
2023/05/06 15:28:42;;;;;;;2.22;1.20;;;;;;;17.80;100.00;100614.09;8285117;28;20106;-62
2023/05/06 15:32:42;;;;;;;1.98;1.05;;;;;;;17.91;100.00;100604.59;8266133;28;20605;-62
2023/05/06 15:36:43;;;;;;;2.15;1.15;;;;;;;17.88;100.00;100611.28;8284352;28;20420;-62
2023/05/06 15:40:49;;;;;;;3.20;1.42;;;;;;;17.89;100.00;100607.50;8282476;28;20060;-62
2023/05/06 15:44:52;;;;;;;5.00;1.75;;;;;;;18.01;100.00;100597.81;8292746;28;20068;-62
2023/05/06 15:48:52;;;;;;;3.80;1.63;;;;;;;18.05;100.00;100601.03;8290550;28;20093;-61
2023/05/06 15:52:53;;;;;;;3.65;1.55;;;;;;;18.12;100.00;100608.31;8271826;28;20038;-62
2023/05/06 15:56:53;;;;;;;2.85;1.15;;;;;;;18.25;100.00;100603.03;8273519;28;20394;-62
2023/05/06 16:00:54;;;;;;;2.67;1.15;;;;;;;18.34;100.00;100606.53;8286515;28;21816;-62
2023/05/06 16:04:54;;;;;;;1.65;1.10;;;;;;;18.53;100.00;100601.38;8289936;28;20038;-61
2023/05/06 16:08:55;;;;;;;5.55;2.85;;;;;;;18.48;100.00;100603.81;8288476;28;20050;-62
2023/05/06 16:12:56;;;;;;;2.15;1.08;;;;;;;18.38;100.00;100608.72;8285081;28;20054;-62
2023/05/06 16:16:57;;;;;;;5.15;1.90;;;;;;;18.44;100.00;100607.97;8259881;28;20177;-61
2023/05/06 16:20:57;;;;;;;4.70;2.30;;;;;;;18.52;100.00;100599.69;8279702;28;20087;-60
2023/05/06 16:24:58;;;;;;;6.53;2.10;;;;;;;18.59;100.00;100595.13;8290312;28;20033;-61
2023/05/06 16:29:00;;;;;;;5.07;2.20;;;;;;;18.38;100.00;100592.31;8287655;28;20497;-62
2023/05/06 16:33:00;;;;;;;4.10;1.67;;;;;;;18.32;100.00;100598.50;8286554;28;20064;-62
2023/05/06 16:37:01;;;;;;;2.60;1.40;;;;;;;18.20;100.00;100600.00;8288649;28;20034;-62
2023/05/06 16:41:01;;;;;;;2.78;1.55;;;;;;;18.21;100.00;100596.22;8272132;28;20031;-61
2023/05/06 16:45:02;;;;;;;7.28;2.00;;;;;;;18.18;100.00;100590.28;8278965;28;20112;-59
2023/05/06 16:49:03;;;;;;;1.95;1.05;;;;;;;18.03;100.00;100582.06;8288709;28;20489;-59
2023/05/06 16:53:04;;;;;;;2.05;0.80;;;;;;;18.03;100.00;100582.06;8271949;28;20484;-59
2023/05/06 16:57:04;;;;;;;3.83;0.88;;;;;;;18.02;100.00;100580.34;8262585;28;20448;-59
2023/05/06 17:01:06;;;;;;;3.00;1.10;;;;;;;18.03;100.00;100576.59;8261963;28;20518;-59
2023/05/06 17:05:07;;;;;;;3.92;1.38;;;;;;;17.97;100.00;100569.13;8271443;28;20042;-59
2023/05/06 17:09:07;;;;;;;2.00;1.35;;;;;;;17.94;100.00;100571.38;8272862;28;20500;-60
2023/05/06 17:13:08;;;;;;;4.45;1.33;;;;;;;17.95;100.00;100567.59;8266875;28;20108;-59
2023/05/06 17:17:08;;;;;;;3.78;1.70;;;;;;;17.93;100.00;100576.00;8275490;28;20459;-59
2023/05/06 17:21:09;;;;;;;2.47;1.50;;;;;;;17.94;100.00;100577.72;8269895;28;20046;-59
2023/05/06 17:25:09;;;;;;;8.02;3.28;;;;;;;17.99;100.00;100569.78;8287482;28;20567;-59
2023/05/06 17:29:10;;;;;;;17.85;10.15;;;;;;;17.99;100.00;100574.44;8280206;28;20088;-59
2023/05/06 17:33:10;;;;;;;11.55;7.20;;;;;;;18.00;100.00;100571.50;8278114;28;20069;-60
2023/05/06 17:37:11;;;;;;;3.78;1.40;;;;;;;17.93;100.00;100562.31;8264223;28;20057;-59
2023/05/06 17:41:12;;;;;;;2.13;1.63;;;;;;;17.96;100.00;100569.31;8279897;28;20038;-59
2023/05/06 17:45:12;;;;;;;2.58;1.77;;;;;;;17.98;100.00;100568.09;8281767;28;20500;-59
2023/05/06 17:49:13;;;;;;;2.65;1.10;;;;;;;18.03;100.00;100573.00;8279212;28;20042;-60
2023/05/06 17:53:13;;;;;;;4.22;1.63;;;;;;;17.98;100.00;100570.81;8280051;28;20034;-59
2023/05/06 17:57:14;;;;;;;2.28;1.40;;;;;;;18.00;100.00;100571.50;8280816;28;20045;-62
2023/05/06 18:01:14;;;;;;;1.60;1.08;;;;;;;17.86;100.00;100572.31;8265060;28;20389;-62
2023/05/06 18:05:16;;;;;;;3.78;0.90;;;;;;;17.86;100.00;100568.72;8278870;28;20049;-62
2023/05/06 18:09:16;;;;;;;2.00;1.27;;;;;;;17.89;100.00;100569.22;8275218;28;20121;-62
2023/05/06 18:13:17;;;;;;;2.45;1.40;;;;;;;17.88;100.00;100567.53;8271533;28;20046;-62
2023/05/06 18:17:17;;;;;;;3.80;1.58;;;;;;;17.84;100.00;100571.66;8267425;28;20383;-59
2023/05/06 18:21:18;;;;;;;2.67;1.15;;;;;;;17.89;100.00;100574.69;8268682;28;20036;-59
2023/05/06 18:25:18;;;;;;;2.33;1.40;;;;;;;17.87;100.00;100565.81;8271670;28;20038;-59
2023/05/06 18:29:19;;;;;;;3.80;2.30;;;;;;;17.82;100.00;100573.72;8262274;28;20041;-59
2023/05/06 18:33:19;;;;;;;5.10;2.42;;;;;;;17.79;100.00;100573.25;8275507;28;20049;-59
2023/05/06 18:37:20;;;;;;;1.90;1.70;;;;;;;17.79;100.00;100568.63;8267020;28;20302;-59